sensor_id;sensor_type;location;lat;lon;timestamp;P1;durP1;ratioP1;P2;durP2;ratioP2
75626;SDS011;67372;49.404;11.034;2023-02-23T00:03:43;15.48;;;8.52;;
75626;SDS011;67372;49.404;11.034;2023-02-23T00:06:11;11.88;;;7.53;;
75626;SDS011;67372;49.404;11.034;2023-02-23T00:08:38;15.68;;;8.32;;
75626;SDS011;67372;49.404;11.034;2023-02-23T00:11:06;16.02;;;9.23;;
75626;SDS011;67372;49.404;11.034;2023-02-23T00:13:35;16.63;;;8.77;;
75626;SDS011;67372;49.404;11.034;2023-02-23T00:16:05;17.80;;;8.48;;
75626;SDS011;67372;49.404;11.034;2023-02-23T00:18:32;17.35;;;8.63;;
75626;SDS011;67372;49.404;11.034;2023-02-23T00:20:59;15.50;;;9.00;;
75626;SDS011;67372;49.404;11.034;2023-02-23T00:23:26;14.32;;;8.43;;
75626;SDS011;67372;49.404;11.034;2023-02-23T00:25:53;14.02;;;8.05;;
75626;SDS011;67372;49.404;11.034;2023-02-23T00:28:19;17.05;;;8.23;;
75626;SDS011;67372;49.404;11.034;2023-02-23T00:30:46;16.80;;;8.15;;
75626;SDS011;67372;49.404;11.034;2023-02-23T00:33:13;15.55;;;8.15;;
75626;SDS011;67372;49.404;11.034;2023-02-23T00:35:40;14.50;;;8.40;;
75626;SDS011;67372;49.404;11.034;2023-02-23T00:38:06;15.20;;;8.30;;
75626;SDS011;67372;49.404;11.034;2023-02-23T00:40:33;12.52;;;7.65;;
75626;SDS011;67372;49.404;11.034;2023-02-23T00:43:00;14.02;;;8.05;;
75626;SDS011;67372;49.404;11.034;2023-02-23T00:45:27;15.90;;;8.27;;
75626;SDS011;67372;49.404;11.034;2023-02-23T00:47:53;13.60;;;8.07;;
75626;SDS011;67372;49.404;11.034;2023-02-23T00:50:20;15.18;;;8.75;;
75626;SDS011;67372;49.404;11.034;2023-02-23T00:52:47;15.88;;;8.73;;
75626;SDS011;67372;49.404;11.034;2023-02-23T00:55:14;17.60;;;8.57;;
75626;SDS011;67372;49.404;11.034;2023-02-23T00:57:41;17.02;;;8.50;;
75626;SDS011;67372;49.404;11.034;2023-02-23T01:00:08;17.60;;;8.82;;
75626;SDS011;67372;49.404;11.034;2023-02-23T01:02:36;16.52;;;8.52;;
75626;SDS011;67372;49.404;11.034;2023-02-23T01:05:03;15.13;;;8.60;;
75626;SDS011;67372;49.404;11.034;2023-02-23T01:07:30;14.48;;;8.50;;
75626;SDS011;67372;49.404;11.034;2023-02-23T01:09:56;15.35;;;8.50;;
75626;SDS011;67372;49.404;11.034;2023-02-23T01:12:23;17.63;;;8.30;;
75626;SDS011;67372;49.404;11.034;2023-02-23T01:14:50;16.13;;;8.80;;
75626;SDS011;67372;49.404;11.034;2023-02-23T01:17:16;15.20;;;8.57;;
75626;SDS011;67372;49.404;11.034;2023-02-23T01:19:43;14.48;;;7.47;;
75626;SDS011;67372;49.404;11.034;2023-02-23T01:22:10;15.15;;;8.40;;
75626;SDS011;67372;49.404;11.034;2023-02-23T01:24:37;12.23;;;7.50;;
75626;SDS011;67372;49.404;11.034;2023-02-23T01:27:03;16.13;;;8.52;;
75626;SDS011;67372;49.404;11.034;2023-02-23T01:29:30;15.70;;;8.00;;
75626;SDS011;67372;49.404;11.034;2023-02-23T01:31:57;15.10;;;8.27;;
75626;SDS011;67372;49.404;11.034;2023-02-23T01:34:24;13.93;;;7.53;;
75626;SDS011;67372;49.404;11.034;2023-02-23T01:36:50;11.43;;;7.13;;
75626;SDS011;67372;49.404;11.034;2023-02-23T01:39:18;11.65;;;7.30;;
75626;SDS011;67372;49.404;11.034;2023-02-23T01:41:46;12.85;;;7.70;;
75626;SDS011;67372;49.404;11.034;2023-02-23T01:46:40;13.93;;;7.72;;
75626;SDS011;67372;49.404;11.034;2023-02-23T01:49:13;12.27;;;7.45;;
75626;SDS011;67372;49.404;11.034;2023-02-23T01:51:45;14.35;;;7.45;;
75626;SDS011;67372;49.404;11.034;2023-02-23T01:54:38;17.63;;;8.43;;
75626;SDS011;67372;49.404;11.034;2023-02-23T01:57:10;15.60;;;8.40;;
75626;SDS011;67372;49.404;11.034;2023-02-23T01:59:42;15.20;;;7.97;;
75626;SDS011;67372;49.404;11.034;2023-02-23T02:02:11;13.02;;;7.43;;
75626;SDS011;67372;49.404;11.034;2023-02-23T02:04:39;16.52;;;9.10;;
75626;SDS011;67372;49.404;11.034;2023-02-23T02:07:07;17.17;;;8.85;;
75626;SDS011;67372;49.404;11.034;2023-02-23T02:09:34;17.80;;;8.63;;
75626;SDS011;67372;49.404;11.034;2023-02-23T02:12:01;15.93;;;8.50;;
75626;SDS011;67372;49.404;11.034;2023-02-23T02:14:28;13.70;;;7.63;;
75626;SDS011;67372;49.404;11.034;2023-02-23T02:26:09;17.42;;;7.88;;
75626;SDS011;67372;49.404;11.034;2023-02-23T02:31:48;16.80;;;8.40;;
75626;SDS011;67372;49.404;11.034;2023-02-23T02:37:10;16.30;;;8.40;;
75626;SDS011;67372;49.404;11.034;2023-02-23T02:43:00;13.98;;;7.63;;
75626;SDS011;67372;49.404;11.034;2023-02-23T02:45:36;13.88;;;7.03;;
75626;SDS011;67372;49.404;11.034;2023-02-23T02:48:16;16.27;;;7.63;;
75626;SDS011;67372;49.404;11.034;2023-02-23T02:51:01;15.50;;;7.30;;
75626;SDS011;67372;49.404;11.034;2023-02-23T02:53:44;14.32;;;7.28;;
75626;SDS011;67372;49.404;11.034;2023-02-23T02:56:17;15.07;;;7.43;;
75626;SDS011;67372;49.404;11.034;2023-02-23T02:58:47;13.00;;;7.45;;
75626;SDS011;67372;49.404;11.034;2023-02-23T03:01:15;13.60;;;7.30;;
75626;SDS011;67372;49.404;11.034;2023-02-23T03:03:43;14.82;;;7.47;;
75626;SDS011;67372;49.404;11.034;2023-02-23T03:06:12;13.80;;;7.68;;
75626;SDS011;67372;49.404;11.034;2023-02-23T03:08:45;12.30;;;7.45;;
75626;SDS011;67372;49.404;11.034;2023-02-23T03:11:15;16.58;;;8.48;;
75626;SDS011;67372;49.404;11.034;2023-02-23T03:13:46;15.02;;;8.15;;
75626;SDS011;67372;49.404;11.034;2023-02-23T03:19:12;14.55;;;8.23;;
75626;SDS011;67372;49.404;11.034;2023-02-23T03:21:44;14.07;;;7.45;;
75626;SDS011;67372;49.404;11.034;2023-02-23T03:24:25;14.00;;;7.72;;
75626;SDS011;67372;49.404;11.034;2023-02-23T03:27:00;14.13;;;8.20;;
75626;SDS011;67372;49.404;11.034;2023-02-23T03:29:36;15.60;;;8.23;;
75626;SDS011;67372;49.404;11.034;2023-02-23T03:32:13;15.10;;;8.18;;
75626;SDS011;67372;49.404;11.034;2023-02-23T03:34:59;16.13;;;7.97;;
75626;SDS011;67372;49.404;11.034;2023-02-23T03:37:36;17.75;;;8.73;;
75626;SDS011;67372;49.404;11.034;2023-02-23T03:40:48;16.70;;;8.05;;
75626;SDS011;67372;49.404;11.034;2023-02-23T03:42:58;17.45;;;7.78;;
75626;SDS011;67372;49.404;11.034;2023-02-23T03:45:26;15.35;;;7.78;;
75626;SDS011;67372;49.404;11.034;2023-02-23T03:47:55;17.70;;;8.80;;
75626;SDS011;67372;49.404;11.034;2023-02-23T03:50:30;16.45;;;7.80;;
75626;SDS011;67372;49.404;11.034;2023-02-23T03:53:01;13.65;;;7.88;;
75626;SDS011;67372;49.404;11.034;2023-02-23T03:55:30;16.60;;;8.10;;
75626;SDS011;67372;49.404;11.034;2023-02-23T03:58:00;15.88;;;8.68;;
75626;SDS011;67372;49.404;11.034;2023-02-23T04:00:35;15.38;;;8.05;;
75626;SDS011;67372;49.404;11.034;2023-02-23T04:03:07;13.15;;;8.15;;
75626;SDS011;67372;49.404;11.034;2023-02-23T04:05:38;16.17;;;8.07;;
75626;SDS011;67372;49.404;11.034;2023-02-23T04:08:07;14.73;;;7.95;;
75626;SDS011;67372;49.404;11.034;2023-02-23T04:10:39;15.35;;;7.82;;
75626;SDS011;67372;49.404;11.034;2023-02-23T04:13:15;15.63;;;7.60;;
75626;SDS011;67372;49.404;11.034;2023-02-23T04:15:47;17.63;;;8.07;;
75626;SDS011;67372;49.404;11.034;2023-02-23T04:18:55;15.43;;;7.38;;
75626;SDS011;67372;49.404;11.034;2023-02-23T04:21:14;12.60;;;6.78;;
75626;SDS011;67372;49.404;11.034;2023-02-23T04:23:40;14.20;;;7.75;;
75626;SDS011;67372;49.404;11.034;2023-02-23T04:26:08;16.67;;;7.78;;
75626;SDS011;67372;49.404;11.034;2023-02-23T04:28:34;14.75;;;7.95;;
75626;SDS011;67372;49.404;11.034;2023-02-23T04:31:00;14.05;;;7.55;;
75626;SDS011;67372;49.404;11.034;2023-02-23T04:33:27;15.13;;;8.23;;
75626;SDS011;67372;49.404;11.034;2023-02-23T04:35:53;16.83;;;7.72;;
75626;SDS011;67372;49.404;11.034;2023-02-23T04:38:20;16.95;;;8.45;;
75626;SDS011;67372;49.404;11.034;2023-02-23T04:40:47;19.20;;;8.77;;
75626;SDS011;67372;49.404;11.034;2023-02-23T04:43:14;15.60;;;8.07;;
75626;SDS011;67372;49.404;11.034;2023-02-23T04:45:40;16.15;;;8.32;;
75626;SDS011;67372;49.404;11.034;2023-02-23T04:48:07;15.07;;;8.20;;
75626;SDS011;67372;49.404;11.034;2023-02-23T04:50:33;16.38;;;8.43;;
75626;SDS011;67372;49.404;11.034;2023-02-23T04:53:00;18.73;;;8.38;;
75626;SDS011;67372;49.404;11.034;2023-02-23T04:55:26;13.50;;;7.32;;
75626;SDS011;67372;49.404;11.034;2023-02-23T04:57:56;15.68;;;8.13;;
75626;SDS011;67372;49.404;11.034;2023-02-23T05:00:23;17.08;;;7.95;;
75626;SDS011;67372;49.404;11.034;2023-02-23T05:02:50;15.88;;;8.30;;
75626;SDS011;67372;49.404;11.034;2023-02-23T05:05:16;16.50;;;8.40;;
75626;SDS011;67372;49.404;11.034;2023-02-23T05:07:43;17.30;;;8.45;;
75626;SDS011;67372;49.404;11.034;2023-02-23T05:10:09;19.10;;;8.50;;
75626;SDS011;67372;49.404;11.034;2023-02-23T05:12:36;17.13;;;9.10;;
75626;SDS011;67372;49.404;11.034;2023-02-23T05:15:03;17.65;;;8.30;;
75626;SDS011;67372;49.404;11.034;2023-02-23T05:17:30;16.08;;;8.32;;
75626;SDS011;67372;49.404;11.034;2023-02-23T05:19:56;14.55;;;7.97;;
75626;SDS011;67372;49.404;11.034;2023-02-23T05:22:22;16.05;;;8.48;;
75626;SDS011;67372;49.404;11.034;2023-02-23T05:24:49;17.65;;;8.90;;
75626;SDS011;67372;49.404;11.034;2023-02-23T05:27:15;15.25;;;8.60;;
75626;SDS011;67372;49.404;11.034;2023-02-23T05:29:41;18.25;;;8.63;;
75626;SDS011;67372;49.404;11.034;2023-02-23T05:32:08;16.63;;;8.65;;
75626;SDS011;67372;49.404;11.034;2023-02-23T05:34:34;20.90;;;9.52;;
75626;SDS011;67372;49.404;11.034;2023-02-23T05:37:00;22.40;;;9.82;;
75626;SDS011;67372;49.404;11.034;2023-02-23T05:39:27;20.35;;;9.57;;
75626;SDS011;67372;49.404;11.034;2023-02-23T05:41:53;22.52;;;10.38;;
75626;SDS011;67372;49.404;11.034;2023-02-23T05:44:20;23.13;;;10.60;;
75626;SDS011;67372;49.404;11.034;2023-02-23T05:46:46;27.48;;;11.52;;
75626;SDS011;67372;49.404;11.034;2023-02-23T05:49:12;21.00;;;10.88;;
75626;SDS011;67372;49.404;11.034;2023-02-23T05:51:39;22.60;;;11.00;;
75626;SDS011;67372;49.404;11.034;2023-02-23T05:54:05;24.00;;;10.48;;
75626;SDS011;67372;49.404;11.034;2023-02-23T05:56:32;23.23;;;10.20;;
75626;SDS011;67372;49.404;11.034;2023-02-23T05:58:58;22.23;;;10.15;;
75626;SDS011;67372;49.404;11.034;2023-02-23T06:01:25;23.80;;;11.32;;
75626;SDS011;67372;49.404;11.034;2023-02-23T06:03:52;27.98;;;11.55;;
75626;SDS011;67372;49.404;11.034;2023-02-23T06:06:18;22.23;;;11.32;;
75626;SDS011;67372;49.404;11.034;2023-02-23T06:08:45;23.80;;;11.00;;
75626;SDS011;67372;49.404;11.034;2023-02-23T06:11:11;19.95;;;10.18;;
75626;SDS011;67372;49.404;11.034;2023-02-23T06:13:38;21.40;;;10.48;;
75626;SDS011;67372;49.404;11.034;2023-02-23T06:16:04;19.83;;;10.00;;
75626;SDS011;67372;49.404;11.034;2023-02-23T06:18:31;23.88;;;10.35;;
75626;SDS011;67372;49.404;11.034;2023-02-23T06:20:58;21.58;;;9.88;;
75626;SDS011;67372;49.404;11.034;2023-02-23T06:23:29;22.58;;;10.35;;
75626;SDS011;67372;49.404;11.034;2023-02-23T06:25:56;22.67;;;10.80;;
75626;SDS011;67372;49.404;11.034;2023-02-23T06:28:22;22.88;;;10.77;;
75626;SDS011;67372;49.404;11.034;2023-02-23T06:30:52;23.73;;;10.77;;
75626;SDS011;67372;49.404;11.034;2023-02-23T06:33:20;20.58;;;10.15;;
75626;SDS011;67372;49.404;11.034;2023-02-23T06:35:47;24.02;;;10.95;;
75626;SDS011;67372;49.404;11.034;2023-02-23T06:38:13;24.15;;;11.05;;
75626;SDS011;67372;49.404;11.034;2023-02-23T06:40:40;20.88;;;10.68;;
75626;SDS011;67372;49.404;11.034;2023-02-23T06:43:06;24.65;;;10.55;;
75626;SDS011;67372;49.404;11.034;2023-02-23T06:45:33;23.33;;;11.27;;
75626;SDS011;67372;49.404;11.034;2023-02-23T06:47:59;23.88;;;10.63;;
75626;SDS011;67372;49.404;11.034;2023-02-23T06:50:26;21.48;;;10.95;;
75626;SDS011;67372;49.404;11.034;2023-02-23T06:52:53;25.63;;;11.18;;
75626;SDS011;67372;49.404;11.034;2023-02-23T06:55:19;22.00;;;10.50;;
75626;SDS011;67372;49.404;11.034;2023-02-23T06:57:47;23.45;;;10.80;;
75626;SDS011;67372;49.404;11.034;2023-02-23T07:00:14;24.65;;;12.10;;
75626;SDS011;67372;49.404;11.034;2023-02-23T07:02:41;27.85;;;11.50;;
75626;SDS011;67372;49.404;11.034;2023-02-23T07:05:07;25.13;;;11.63;;
75626;SDS011;67372;49.404;11.034;2023-02-23T07:07:34;36.28;;;16.38;;
75626;SDS011;67372;49.404;11.034;2023-02-23T07:10:00;39.17;;;17.63;;
75626;SDS011;67372;49.404;11.034;2023-02-23T07:12:28;99.45;;;39.88;;
75626;SDS011;67372;49.404;11.034;2023-02-23T07:14:55;65.60;;;28.15;;
75626;SDS011;67372;49.404;11.034;2023-02-23T07:17:22;34.72;;;14.95;;
75626;SDS011;67372;49.404;11.034;2023-02-23T07:19:48;32.97;;;15.20;;
75626;SDS011;67372;49.404;11.034;2023-02-23T07:22:15;29.92;;;13.43;;
75626;SDS011;67372;49.404;11.034;2023-02-23T07:24:41;30.02;;;13.38;;
75626;SDS011;67372;49.404;11.034;2023-02-23T07:27:07;29.17;;;14.00;;
75626;SDS011;67372;49.404;11.034;2023-02-23T07:29:34;30.50;;;14.50;;
75626;SDS011;67372;49.404;11.034;2023-02-23T07:32:00;26.05;;;12.23;;
75626;SDS011;67372;49.404;11.034;2023-02-23T07:34:27;25.30;;;12.52;;
75626;SDS011;67372;49.404;11.034;2023-02-23T07:36:53;29.17;;;13.30;;
75626;SDS011;67372;49.404;11.034;2023-02-23T07:39:19;26.80;;;12.73;;
75626;SDS011;67372;49.404;11.034;2023-02-23T07:41:45;27.67;;;13.60;;
75626;SDS011;67372;49.404;11.034;2023-02-23T07:44:12;34.33;;;15.05;;
75626;SDS011;67372;49.404;11.034;2023-02-23T07:46:38;30.65;;;14.80;;
75626;SDS011;67372;49.404;11.034;2023-02-23T07:49:04;29.92;;;13.75;;
75626;SDS011;67372;49.404;11.034;2023-02-23T07:51:31;31.25;;;14.48;;
75626;SDS011;67372;49.404;11.034;2023-02-23T07:54:00;28.13;;;14.30;;
75626;SDS011;67372;49.404;11.034;2023-02-23T07:56:28;27.85;;;13.90;;
75626;SDS011;67372;49.404;11.034;2023-02-23T07:58:54;27.05;;;13.32;;
75626;SDS011;67372;49.404;11.034;2023-02-23T08:01:20;26.10;;;12.38;;
75626;SDS011;67372;49.404;11.034;2023-02-23T08:03:47;28.23;;;13.40;;
75626;SDS011;67372;49.404;11.034;2023-02-23T08:06:14;31.83;;;12.77;;
75626;SDS011;67372;49.404;11.034;2023-02-23T08:08:41;30.73;;;14.68;;
75626;SDS011;67372;49.404;11.034;2023-02-23T08:11:08;28.02;;;13.40;;
75626;SDS011;67372;49.404;11.034;2023-02-23T08:13:35;28.10;;;13.32;;
75626;SDS011;67372;49.404;11.034;2023-02-23T08:16:01;27.80;;;14.23;;
75626;SDS011;67372;49.404;11.034;2023-02-23T08:18:28;28.73;;;13.55;;
75626;SDS011;67372;49.404;11.034;2023-02-23T08:20:58;32.47;;;13.93;;
75626;SDS011;67372;49.404;11.034;2023-02-23T08:23:25;28.10;;;14.02;;
75626;SDS011;67372;49.404;11.034;2023-02-23T08:25:52;31.15;;;14.52;;
75626;SDS011;67372;49.404;11.034;2023-02-23T08:28:20;29.58;;;15.25;;
75626;SDS011;67372;49.404;11.034;2023-02-23T08:30:46;31.23;;;14.88;;
75626;SDS011;67372;49.404;11.034;2023-02-23T08:33:13;30.77;;;14.25;;
75626;SDS011;67372;49.404;11.034;2023-02-23T08:35:39;28.65;;;14.18;;
75626;SDS011;67372;49.404;11.034;2023-02-23T08:38:05;30.27;;;14.23;;
75626;SDS011;67372;49.404;11.034;2023-02-23T08:40:32;30.40;;;14.32;;
75626;SDS011;67372;49.404;11.034;2023-02-23T08:42:58;31.13;;;14.30;;
75626;SDS011;67372;49.404;11.034;2023-02-23T08:45:24;27.80;;;14.15;;
75626;SDS011;67372;49.404;11.034;2023-02-23T08:47:52;31.35;;;14.65;;
75626;SDS011;67372;49.404;11.034;2023-02-23T08:50:19;29.08;;;14.43;;
75626;SDS011;67372;49.404;11.034;2023-02-23T08:52:46;32.83;;;14.57;;
75626;SDS011;67372;49.404;11.034;2023-02-23T08:55:12;32.17;;;15.02;;
75626;SDS011;67372;49.404;11.034;2023-02-23T08:57:38;33.22;;;14.70;;
75626;SDS011;67372;49.404;11.034;2023-02-23T09:00:05;29.90;;;14.40;;
75626;SDS011;67372;49.404;11.034;2023-02-23T09:02:32;29.42;;;14.63;;
75626;SDS011;67372;49.404;11.034;2023-02-23T09:04:58;33.83;;;15.57;;
75626;SDS011;67372;49.404;11.034;2023-02-23T09:07:24;27.88;;;14.13;;
75626;SDS011;67372;49.404;11.034;2023-02-23T09:09:54;31.65;;;15.57;;
75626;SDS011;67372;49.404;11.034;2023-02-23T09:12:21;33.38;;;15.52;;
75626;SDS011;67372;49.404;11.034;2023-02-23T09:14:48;32.55;;;15.65;;
75626;SDS011;67372;49.404;11.034;2023-02-23T09:17:14;30.40;;;15.07;;
75626;SDS011;67372;49.404;11.034;2023-02-23T09:19:43;30.13;;;14.02;;
75626;SDS011;67372;49.404;11.034;2023-02-23T09:22:09;32.05;;;15.15;;
75626;SDS011;67372;49.404;11.034;2023-02-23T09:24:36;28.98;;;14.82;;
75626;SDS011;67372;49.404;11.034;2023-02-23T09:27:02;32.33;;;14.88;;
75626;SDS011;67372;49.404;11.034;2023-02-23T09:29:29;35.03;;;15.05;;
75626;SDS011;67372;49.404;11.034;2023-02-23T09:31:55;31.05;;;15.77;;
75626;SDS011;67372;49.404;11.034;2023-02-23T09:34:22;34.85;;;16.05;;
75626;SDS011;67372;49.404;11.034;2023-02-23T09:36:49;34.67;;;15.30;;
75626;SDS011;67372;49.404;11.034;2023-02-23T09:39:15;35.50;;;15.82;;
75626;SDS011;67372;49.404;11.034;2023-02-23T09:42:05;30.50;;;15.00;;
75626;SDS011;67372;49.404;11.034;2023-02-23T09:47:28;35.95;;;15.35;;
75626;SDS011;67372;49.404;11.034;2023-02-23T09:50:11;35.08;;;15.98;;
75626;SDS011;67372;49.404;11.034;2023-02-23T09:52:43;31.52;;;15.30;;
75626;SDS011;67372;49.404;11.034;2023-02-23T09:55:14;30.95;;;15.07;;
75626;SDS011;67372;49.404;11.034;2023-02-23T09:57:43;33.40;;;15.38;;
75626;SDS011;67372;49.404;11.034;2023-02-23T10:00:14;31.02;;;15.73;;
75626;SDS011;67372;49.404;11.034;2023-02-23T10:05:38;35.40;;;16.23;;
75626;SDS011;67372;49.404;11.034;2023-02-23T10:08:19;31.95;;;15.57;;
75626;SDS011;67372;49.404;11.034;2023-02-23T10:11:05;33.42;;;17.20;;
75626;SDS011;67372;49.404;11.034;2023-02-23T10:19:28;32.60;;;16.90;;
75626;SDS011;67372;49.404;11.034;2023-02-23T10:22:03;33.10;;;15.32;;
75626;SDS011;67372;49.404;11.034;2023-02-23T10:24:34;33.33;;;15.57;;
75626;SDS011;67372;49.404;11.034;2023-02-23T10:27:07;36.22;;;16.60;;
75626;SDS011;67372;49.404;11.034;2023-02-23T10:29:42;32.42;;;16.55;;
75626;SDS011;67372;49.404;11.034;2023-02-23T10:32:21;30.98;;;14.77;;
75626;SDS011;67372;49.404;11.034;2023-02-23T10:34:54;30.10;;;14.25;;
75626;SDS011;67372;49.404;11.034;2023-02-23T10:37:22;33.92;;;15.98;;
75626;SDS011;67372;49.404;11.034;2023-02-23T10:39:50;32.63;;;14.40;;
75626;SDS011;67372;49.404;11.034;2023-02-23T10:42:24;32.38;;;15.85;;
75626;SDS011;67372;49.404;11.034;2023-02-23T10:44:52;31.35;;;15.13;;
75626;SDS011;67372;49.404;11.034;2023-02-23T10:47:20;35.15;;;16.33;;
75626;SDS011;67372;49.404;11.034;2023-02-23T10:49:51;31.95;;;16.40;;
75626;SDS011;67372;49.404;11.034;2023-02-23T10:52:43;31.30;;;15.30;;
75626;SDS011;67372;49.404;11.034;2023-02-23T10:55:28;31.25;;;14.60;;
75626;SDS011;67372;49.404;11.034;2023-02-23T10:58:16;31.98;;;15.05;;
75626;SDS011;67372;49.404;11.034;2023-02-23T11:00:54;31.35;;;15.93;;
75626;SDS011;67372;49.404;11.034;2023-02-23T11:05:54;30.00;;;14.30;;
75626;SDS011;67372;49.404;11.034;2023-02-23T11:08:36;30.27;;;13.90;;
75626;SDS011;67372;49.404;11.034;2023-02-23T11:18:34;25.80;;;13.02;;
75626;SDS011;67372;49.404;11.034;2023-02-23T11:23:28;26.35;;;12.27;;
75626;SDS011;67372;49.404;11.034;2023-02-23T11:26:00;24.63;;;12.88;;
75626;SDS011;67372;49.404;11.034;2023-02-23T11:28:29;24.35;;;12.70;;
75626;SDS011;67372;49.404;11.034;2023-02-23T11:31:11;25.50;;;11.55;;
75626;SDS011;67372;49.404;11.034;2023-02-23T11:33:41;23.02;;;11.32;;
75626;SDS011;67372;49.404;11.034;2023-02-23T11:39:17;23.52;;;12.05;;
75626;SDS011;67372;49.404;11.034;2023-02-23T11:41:39;23.38;;;12.15;;
75626;SDS011;67372;49.404;11.034;2023-02-23T11:44:05;23.40;;;10.88;;
75626;SDS011;67372;49.404;11.034;2023-02-23T11:46:34;24.13;;;11.52;;
75626;SDS011;67372;49.404;11.034;2023-02-23T11:49:06;22.00;;;10.60;;
75626;SDS011;67372;49.404;11.034;2023-02-23T11:51:39;23.35;;;10.38;;
75626;SDS011;67372;49.404;11.034;2023-02-23T11:56:47;19.70;;;10.43;;
75626;SDS011;67372;49.404;11.034;2023-02-23T11:59:15;20.90;;;10.00;;
75626;SDS011;67372;49.404;11.034;2023-02-23T12:01:44;18.02;;;8.88;;
75626;SDS011;67372;49.404;11.034;2023-02-23T12:04:28;20.27;;;10.25;;
75626;SDS011;67372;49.404;11.034;2023-02-23T12:15:34;22.48;;;9.52;;
75626;SDS011;67372;49.404;11.034;2023-02-23T12:18:03;16.35;;;8.43;;
75626;SDS011;67372;49.404;11.034;2023-02-23T12:20:38;16.63;;;8.95;;
75626;SDS011;67372;49.404;11.034;2023-02-23T12:23:08;15.73;;;8.13;;
75626;SDS011;67372;49.404;11.034;2023-02-23T12:25:46;16.13;;;8.20;;
75626;SDS011;67372;49.404;11.034;2023-02-23T12:28:21;14.60;;;6.90;;
75626;SDS011;67372;49.404;11.034;2023-02-23T12:33:43;15.70;;;8.70;;
75626;SDS011;67372;49.404;11.034;2023-02-23T12:36:25;14.70;;;8.18;;
75626;SDS011;67372;49.404;11.034;2023-02-23T12:41:34;16.98;;;8.38;;
75626;SDS011;67372;49.404;11.034;2023-02-23T12:47:17;17.60;;;7.97;;
75626;SDS011;67372;49.404;11.034;2023-02-23T12:49:54;17.33;;;9.15;;
75626;SDS011;67372;49.404;11.034;2023-02-23T12:52:37;17.42;;;8.32;;
75626;SDS011;67372;49.404;11.034;2023-02-23T12:55:42;16.83;;;7.63;;
75626;SDS011;67372;49.404;11.034;2023-02-23T12:58:35;17.05;;;7.97;;
75626;SDS011;67372;49.404;11.034;2023-02-23T13:04:28;18.20;;;9.38;;
75626;SDS011;67372;49.404;11.034;2023-02-23T13:09:50;16.88;;;7.93;;
75626;SDS011;67372;49.404;11.034;2023-02-23T13:12:28;17.38;;;8.57;;
75626;SDS011;67372;49.404;11.034;2023-02-23T13:15:14;14.90;;;7.95;;
75626;SDS011;67372;49.404;11.034;2023-02-23T13:20:20;15.80;;;7.53;;
75626;SDS011;67372;49.404;11.034;2023-02-23T13:22:54;16.05;;;7.60;;
75626;SDS011;67372;49.404;11.034;2023-02-23T13:25:40;18.13;;;9.15;;
75626;SDS011;67372;49.404;11.034;2023-02-23T13:28:16;16.38;;;8.23;;
75626;SDS011;67372;49.404;11.034;2023-02-23T13:30:59;15.95;;;7.53;;
75626;SDS011;67372;49.404;11.034;2023-02-23T13:33:28;17.30;;;7.80;;
75626;SDS011;67372;49.404;11.034;2023-02-23T13:36:09;15.95;;;8.18;;
75626;SDS011;67372;49.404;11.034;2023-02-23T13:38:40;16.45;;;7.88;;
75626;SDS011;67372;49.404;11.034;2023-02-23T13:41:37;15.07;;;7.88;;
75626;SDS011;67372;49.404;11.034;2023-02-23T13:44:08;17.00;;;9.05;;
75626;SDS011;67372;49.404;11.034;2023-02-23T13:46:51;14.90;;;7.88;;
75626;SDS011;67372;49.404;11.034;2023-02-23T13:49:39;14.65;;;7.63;;
75626;SDS011;67372;49.404;11.034;2023-02-23T13:52:18;15.50;;;7.95;;
75626;SDS011;67372;49.404;11.034;2023-02-23T13:54:56;17.08;;;7.90;;
75626;SDS011;67372;49.404;11.034;2023-02-23T13:59:52;14.00;;;6.80;;
75626;SDS011;67372;49.404;11.034;2023-02-23T14:02:27;14.75;;;7.80;;
75626;SDS011;67372;49.404;11.034;2023-02-23T14:04:56;16.17;;;7.65;;
75626;SDS011;67372;49.404;11.034;2023-02-23T14:07:29;16.38;;;8.45;;
75626;SDS011;67372;49.404;11.034;2023-02-23T14:10:04;14.90;;;6.88;;
75626;SDS011;67372;49.404;11.034;2023-02-23T14:12:42;13.18;;;7.45;;
75626;SDS011;67372;49.404;11.034;2023-02-23T14:15:41;23.33;;;11.75;;
75626;SDS011;67372;49.404;11.034;2023-02-23T14:20:45;15.93;;;8.05;;
75626;SDS011;67372;49.404;11.034;2023-02-23T14:28:21;16.33;;;8.07;;
75626;SDS011;67372;49.404;11.034;2023-02-23T14:41:49;24.98;;;11.07;;
75626;SDS011;67372;49.404;11.034;2023-02-23T14:44:34;39.50;;;14.88;;
75626;SDS011;67372;49.404;11.034;2023-02-23T14:47:08;25.23;;;12.55;;
75626;SDS011;67372;49.404;11.034;2023-02-23T14:49:42;19.90;;;11.10;;
75626;SDS011;67372;49.404;11.034;2023-02-23T14:54:41;21.30;;;9.27;;
75626;SDS011;67372;49.404;11.034;2023-02-23T14:57:19;24.98;;;11.45;;
75626;SDS011;67372;49.404;11.034;2023-02-23T14:59:55;29.33;;;12.57;;
75626;SDS011;67372;49.404;11.034;2023-02-23T15:02:27;21.90;;;10.50;;
75626;SDS011;67372;49.404;11.034;2023-02-23T15:04:55;20.85;;;10.57;;
75626;SDS011;67372;49.404;11.034;2023-02-23T15:07:28;21.08;;;10.43;;
75626;SDS011;67372;49.404;11.034;2023-02-23T15:09:58;20.88;;;11.40;;
75626;SDS011;67372;49.404;11.034;2023-02-23T15:12:29;36.00;;;14.98;;
75626;SDS011;67372;49.404;11.034;2023-02-23T15:15:02;44.03;;;16.05;;
75626;SDS011;67372;49.404;11.034;2023-02-23T15:17:31;29.92;;;12.68;;
75626;SDS011;67372;49.404;11.034;2023-02-23T15:20:00;23.17;;;10.38;;
75626;SDS011;67372;49.404;11.034;2023-02-23T15:22:41;22.27;;;10.57;;
75626;SDS011;67372;49.404;11.034;2023-02-23T15:25:19;27.52;;;12.52;;
75626;SDS011;67372;49.404;11.034;2023-02-23T15:27:47;20.05;;;9.43;;
75626;SDS011;67372;49.404;11.034;2023-02-23T15:30:27;21.85;;;10.15;;
75626;SDS011;67372;49.404;11.034;2023-02-23T15:33:02;18.80;;;9.32;;
75626;SDS011;67372;49.404;11.034;2023-02-23T15:35:29;20.95;;;9.73;;
75626;SDS011;67372;49.404;11.034;2023-02-23T15:38:00;24.73;;;9.75;;
75626;SDS011;67372;49.404;11.034;2023-02-23T15:40:46;18.77;;;9.13;;
75626;SDS011;67372;49.404;11.034;2023-02-23T15:43:17;18.85;;;9.55;;
75626;SDS011;67372;49.404;11.034;2023-02-23T15:45:52;22.58;;;11.05;;
75626;SDS011;67372;49.404;11.034;2023-02-23T15:48:21;25.00;;;11.85;;
75626;SDS011;67372;49.404;11.034;2023-02-23T15:50:51;28.73;;;13.65;;
75626;SDS011;67372;49.404;11.034;2023-02-23T15:53:25;30.65;;;14.50;;
75626;SDS011;67372;49.404;11.034;2023-02-23T15:56:04;29.40;;;14.63;;
75626;SDS011;67372;49.404;11.034;2023-02-23T15:58:37;28.70;;;14.10;;
75626;SDS011;67372;49.404;11.034;2023-02-23T16:01:29;20.25;;;10.27;;
75626;SDS011;67372;49.404;11.034;2023-02-23T16:04:01;19.38;;;9.85;;
75626;SDS011;67372;49.404;11.034;2023-02-23T16:11:43;19.67;;;9.60;;
75626;SDS011;67372;49.404;11.034;2023-02-23T16:14:12;19.77;;;9.32;;
75626;SDS011;67372;49.404;11.034;2023-02-23T16:16:42;19.52;;;10.07;;
75626;SDS011;67372;49.404;11.034;2023-02-23T16:19:10;19.00;;;10.05;;
75626;SDS011;67372;49.404;11.034;2023-02-23T16:21:39;18.48;;;9.35;;
75626;SDS011;67372;49.404;11.034;2023-02-23T16:24:07;19.23;;;9.13;;
75626;SDS011;67372;49.404;11.034;2023-02-23T16:26:46;18.58;;;9.05;;